Vidfoss — V2QK4 — position and weather

sailwx.info

Track history (hours):
 
Tides and Currents Weather Stations Pressure Air Temp Water Temp Dewpoint Dewpoint Depression Visibility Wind Speed Wind Dir Waves Ship Positions

Vidfoss

Last reported at 2015-Jul-06 23:33 UTC. Time now 2015-Jul-07 00:15 UTC.
Position N 64°07' E 009°41'.

Length 93 m; draft 4.6 m.

Type: Cargo ship. MMSI: 305846000.

Date/timePositionNaut miles runAvg speedWind from/ knotsBaromVisibWave heightAir tempDewpointWater temp
2015-Jul-06 23:33N 64°07' E 009°41'1111.2
2015-Jul-06 22:33N 63°57' E 009°28'1211.6
2015-Jul-06 21:34N 63°46' E 009°18'  
2015-Jul-04 07:28N 54°19' E 005°13'1212.8
2015-Jul-04 06:33N 54°07' E 005°08'1212.5
2015-Jul-04 05:33N 53°56' E 004°60'1212.0
2015-Jul-04 04:34N 53°45' E 004°51'1311.7
2015-Jul-04 03:26N 53°32' E 004°46'1111.5
2015-Jul-04 02:28N 53°22' E 004°40'1111.4
2015-Jul-04 01:31N 53°11' E 004°33'1111.3
2015-Jul-04 00:34N 53°01' E 004°27'1211.5
2015-Jul-03 23:33N 52°50' E 004°28'1111.3
2015-Jul-03 22:33N 52°39' E 004°29'1110.6
2015-Jul-03 21:34N 52°28' E 004°32'5 4.6
2015-Jul-03 20:34N 52°28' E 004°40'0 0.3
2015-Jul-03 19:33N 52°28' E 004°40'0 0.0
2015-Jul-03 18:33N 52°28' E 004°40'0 0.0
2015-Jul-03 17:34N 52°28' E 004°40'0 0.0
2015-Jul-03 16:33N 52°28' E 004°40'0 0.0
2015-Jul-03 15:33N 52°28' E 004°40'0 0.0
2015-Jul-03 14:33N 52°28' E 004°40'0 0.0
2015-Jul-03 13:34N 52°28' E 004°40'0 0.0
2015-Jul-03 12:33N 52°28' E 004°40'0 0.0
2015-Jul-03 11:34N 52°28' E 004°40'0 0.0
2015-Jul-03 10:33N 52°28' E 004°40'0 0.0
2015-Jul-03 09:33N 52°28' E 004°40'2 1.0
2015-Jul-03 07:33N 52°28' E 004°36'7 7.5
2015-Jul-03 06:33N 52°28' E 004°24'1413.7
2015-Jul-03 05:33N 52°28' E 004°02'7812.6
2015-Jul-02 23:24N 52°52' E 002°00'1112.9
2015-Jul-02 22:33N 52°58' E 001°45'1413.8
2015-Jul-02 21:33N 53°05' E 001°25'4213.4
2015-Jul-02 18:23N 53°28' E 000°25'1012.2
2015-Jul-02 17:33N 53°33' E 000°10'9 8.7
2015-Jul-02 16:33N 53°35' W 000°04'0 0.3
2015-Jul-02 15:33N 53°35' W 000°04'0 0.0
2015-Jul-02 14:34N 53°35' W 000°04'0 0.0
2015-Jul-02 13:33N 53°35' W 000°04'0 0.0
2015-Jul-02 12:34N 53°35' W 000°04'0 0.0
2015-Jul-02 11:33N 53°35' W 000°04'0 0.0
2015-Jul-02 10:34N 53°35' W 000°04'0 0.0
2015-Jul-02 09:33N 53°35' W 000°04'0 0.0
2015-Jul-02 08:33N 53°35' W 000°04'0 0.0
2015-Jul-02 07:34N 53°35' W 000°04'0 0.0
2015-Jul-02 06:33N 53°35' W 000°04'0 0.0
2015-Jul-02 05:33N 53°35' W 000°04'0 0.0
2015-Jul-02 04:33N 53°35' W 000°04'0 0.0
2015-Jul-02 03:34N 53°35' W 000°04'0 0.0
2015-Jul-02 02:34N 53°35' W 000°04'0 0.0
2015-Jul-02 01:33N 53°35' W 000°04'0 0.0
2015-Jul-02 00:33N 53°35' W 000°04'0 0.0
2015-Jul-01 23:33N 53°35' W 000°04'0 0.0
2015-Jul-01 22:33N 53°35' W 000°04'0 0.0
2015-Jul-01 21:33N 53°35' W 000°04'0 0.0
2015-Jul-01 20:33N 53°35' W 000°04'0 0.0
2015-Jul-01 19:33N 53°35' W 000°04'0 0.0
2015-Jul-01 18:33N 53°35' W 000°04'0 0.0
2015-Jul-01 17:33N 53°35' W 000°04'0 0.0
2015-Jul-01 16:33N 53°35' W 000°04'0 0.0
2015-Jul-01 15:33N 53°35' W 000°04'0 0.0
2015-Jul-01 14:33N 53°35' W 000°04'0 0.0
2015-Jul-01 13:33N 53°35' W 000°04'0 0.0
2015-Jul-01 12:33N 53°35' W 000°04'0 0.0
2015-Jul-01 11:33N 53°35' W 000°04'0 0.0
2015-Jul-01 10:33N 53°35' W 000°04'0 0.0
2015-Jul-01 09:33N 53°35' W 000°04'0 0.0
2015-Jul-01 08:33N 53°35' W 000°04'0 0.0
2015-Jul-01 07:33N 53°35' W 000°04'0 0.0
2015-Jul-01 06:33N 53°35' W 000°04'0 0.0
2015-Jul-01 05:33N 53°35' W 000°04'0 0.0
2015-Jul-01 04:34N 53°35' W 000°04'1 0.6
2015-Jul-01 03:33N 53°35' W 000°04'7 7.1
2015-Jul-01 02:33N 53°34' E 000°08'8 7.9
2015-Jul-01 01:33N 53°33' E 000°21'3 2.2
2015-Jul-01 00:11N 53°35' E 000°25'0 0.0
2015-Jun-30 23:33N 53°35' E 000°25'0 0.0
2015-Jun-30 22:27N 53°35' E 000°25'0 0.0
2015-Jun-30 21:28N 53°35' E 000°25'0 0.0
2015-Jun-30 20:29N 53°35' E 000°25'1 1.1
2015-Jun-30 19:33N 53°36' E 000°25'1010.4
2015-Jun-30 18:33N 53°46' E 000°31'1212.1
2015-Jun-30 17:33N 53°58' E 000°35'1212.4
2015-Jun-30 16:33N 54°09' E 000°42'2912.5
2015-Jun-30 14:14N 54°37' E 000°57'912.6
2015-Jun-30 13:34N 54°45' E 001°01'  
2015-Jun-28 01:13N 63°09' E 007°45'2 0.9
2015-Jun-27 23:33N 63°07' E 007°46'5112.4
2015-Jun-27 19:26N 63°35' E 009°23'1112.4
2015-Jun-27 18:34N 63°45' E 009°32'1312.6
2015-Jun-27 17:34N 63°55' E 009°47'8 8.1
2015-Jun-27 16:34N 64°00' E 010°02'6 6.3
2015-Jun-27 15:33N 64°07' E 010°02'  
Track history (hours):
 
Tides and Currents Weather Stations Pressure Air Temp Water Temp Dewpoint Dewpoint Depression Visibility Wind Speed Wind Dir Waves Ship Positions

Vidfoss

Last reported at 2015-Jul-06 23:33 UTC. Time now 2015-Jul-07 00:15 UTC.
Position N 64°07' E 009°41'.

Length 93 m; draft 4.6 m.

Type: Cargo ship. MMSI: 305846000.

Date/timePositionNaut miles runAvg speedWind from/ knotsBaromVisibWave heightAir tempDewpointWater temp
2015-Jul-06 23:33N 64°07' E 009°41'1111.2
2015-Jul-06 22:33N 63°57' E 009°28'1211.6
2015-Jul-06 21:34N 63°46' E 009°18'  
2015-Jul-04 07:28N 54°19' E 005°13'1212.8
2015-Jul-04 06:33N 54°07' E 005°08'1212.5
2015-Jul-04 05:33N 53°56' E 004°60'1212.0
2015-Jul-04 04:34N 53°45' E 004°51'1311.7
2015-Jul-04 03:26N 53°32' E 004°46'1111.5
2015-Jul-04 02:28N 53°22' E 004°40'1111.4
2015-Jul-04 01:31N 53°11' E 004°33'1111.3
2015-Jul-04 00:34N 53°01' E 004°27'1211.5
2015-Jul-03 23:33N 52°50' E 004°28'1111.3
2015-Jul-03 22:33N 52°39' E 004°29'1110.6
2015-Jul-03 21:34N 52°28' E 004°32'5 4.6
2015-Jul-03 20:34N 52°28' E 004°40'0 0.3
2015-Jul-03 19:33N 52°28' E 004°40'0 0.0
2015-Jul-03 18:33N 52°28' E 004°40'0 0.0
2015-Jul-03 17:34N 52°28' E 004°40'0 0.0
2015-Jul-03 16:33N 52°28' E 004°40'0 0.0
2015-Jul-03 15:33N 52°28' E 004°40'0 0.0
2015-Jul-03 14:33N 52°28' E 004°40'0 0.0
2015-Jul-03 13:34N 52°28' E 004°40'0 0.0
2015-Jul-03 12:33N 52°28' E 004°40'0 0.0
2015-Jul-03 11:34N 52°28' E 004°40'0 0.0
2015-Jul-03 10:33N 52°28' E 004°40'0 0.0
2015-Jul-03 09:33N 52°28' E 004°40'2 1.0
2015-Jul-03 07:33N 52°28' E 004°36'7 7.5
2015-Jul-03 06:33N 52°28' E 004°24'1413.7
2015-Jul-03 05:33N 52°28' E 004°02'7812.6
2015-Jul-02 23:24N 52°52' E 002°00'1112.9
2015-Jul-02 22:33N 52°58' E 001°45'1413.8
2015-Jul-02 21:33N 53°05' E 001°25'4213.4
2015-Jul-02 18:23N 53°28' E 000°25'1012.2
2015-Jul-02 17:33N 53°33' E 000°10'9 8.7
2015-Jul-02 16:33N 53°35' W 000°04'0 0.3
2015-Jul-02 15:33N 53°35' W 000°04'0 0.0
2015-Jul-02 14:34N 53°35' W 000°04'0 0.0
2015-Jul-02 13:33N 53°35' W 000°04'0 0.0
2015-Jul-02 12:34N 53°35' W 000°04'0 0.0
2015-Jul-02 11:33N 53°35' W 000°04'0 0.0
2015-Jul-02 10:34N 53°35' W 000°04'0 0.0
2015-Jul-02 09:33N 53°35' W 000°04'0 0.0
2015-Jul-02 08:33N 53°35' W 000°04'0 0.0
2015-Jul-02 07:34N 53°35' W 000°04'0 0.0
2015-Jul-02 06:33N 53°35' W 000°04'0 0.0
2015-Jul-02 05:33N 53°35' W 000°04'0 0.0
2015-Jul-02 04:33N 53°35' W 000°04'0 0.0
2015-Jul-02 03:34N 53°35' W 000°04'0 0.0
2015-Jul-02 02:34N 53°35' W 000°04'0 0.0
2015-Jul-02 01:33N 53°35' W 000°04'0 0.0
2015-Jul-02 00:33N 53°35' W 000°04'0 0.0
2015-Jul-01 23:33N 53°35' W 000°04'0 0.0
2015-Jul-01 22:33N 53°35' W 000°04'0 0.0
2015-Jul-01 21:33N 53°35' W 000°04'0 0.0
2015-Jul-01 20:33N 53°35' W 000°04'0 0.0
2015-Jul-01 19:33N 53°35' W 000°04'0 0.0
2015-Jul-01 18:33N 53°35' W 000°04'0 0.0
2015-Jul-01 17:33N 53°35' W 000°04'0 0.0
2015-Jul-01 16:33N 53°35' W 000°04'0 0.0
2015-Jul-01 15:33N 53°35' W 000°04'0 0.0
2015-Jul-01 14:33N 53°35' W 000°04'0 0.0
2015-Jul-01 13:33N 53°35' W 000°04'0 0.0
2015-Jul-01 12:33N 53°35' W 000°04'0 0.0
2015-Jul-01 11:33N 53°35' W 000°04'0 0.0
2015-Jul-01 10:33N 53°35' W 000°04'0 0.0
2015-Jul-01 09:33N 53°35' W 000°04'0 0.0
2015-Jul-01 08:33N 53°35' W 000°04'0 0.0
2015-Jul-01 07:33N 53°35' W 000°04'0 0.0
2015-Jul-01 06:33N 53°35' W 000°04'0 0.0
2015-Jul-01 05:33N 53°35' W 000°04'0 0.0
2015-Jul-01 04:34N 53°35' W 000°04'1 0.6
2015-Jul-01 03:33N 53°35' W 000°04'7 7.1
2015-Jul-01 02:33N 53°34' E 000°08'8 7.9
2015-Jul-01 01:33N 53°33' E 000°21'3 2.2
2015-Jul-01 00:11N 53°35' E 000°25'0 0.0
2015-Jun-30 23:33N 53°35' E 000°25'0 0.0
2015-Jun-30 22:27N 53°35' E 000°25'0 0.0
2015-Jun-30 21:28N 53°35' E 000°25'0 0.0
2015-Jun-30 20:29N 53°35' E 000°25'1 1.1
2015-Jun-30 19:33N 53°36' E 000°25'1010.4
2015-Jun-30 18:33N 53°46' E 000°31'1212.1
2015-Jun-30 17:33N 53°58' E 000°35'1212.4
2015-Jun-30 16:33N 54°09' E 000°42'2912.5
2015-Jun-30 14:14N 54°37' E 000°57'912.6
2015-Jun-30 13:34N 54°45' E 001°01'  
2015-Jun-28 01:13N 63°09' E 007°45'2 0.9
2015-Jun-27 23:33N 63°07' E 007°46'5112.4
2015-Jun-27 19:26N 63°35' E 009°23'1112.4
2015-Jun-27 18:34N 63°45' E 009°32'1312.6
2015-Jun-27 17:34N 63°55' E 009°47'8 8.1
2015-Jun-27 16:34N 64°00' E 010°02'6 6.3
2015-Jun-27 15:33N 64°07' E 010°02'  

Dump ship's entire track history